createdAt,value
2016-08-18T00:00:34.455Z,99.99
2016-08-18T00:01:34.563Z,99.99
2016-08-18T00:02:35.206Z,99.99
2016-08-18T00:03:34.510Z,99.99
2016-08-18T00:04:35.243Z,99.99
2016-08-18T00:05:35.256Z,99.99
2016-08-18T00:06:34.567Z,99.99
2016-08-18T00:07:35.299Z,99.99
2016-08-18T00:08:34.607Z,99.99
2016-08-18T00:09:34.633Z,99.99
2016-08-18T00:10:34.655Z,99.99
2016-08-18T00:11:34.681Z,99.99
2016-08-18T00:12:34.690Z,99.99
2016-08-18T00:13:35.415Z,99.99
2016-08-18T00:14:34.807Z,99.99
2016-08-18T00:15:34.754Z,99.99
2016-08-18T00:16:34.783Z,99.99
2016-08-18T00:17:35.504Z,99.99
2016-08-18T00:18:34.810Z,99.99
2016-08-18T00:19:34.828Z,99.99
2016-08-18T00:20:35.573Z,99.99
2016-08-18T00:21:34.863Z,99.99
2016-08-18T00:22:35.587Z,99.99
2016-08-18T00:23:35.614Z,99.99
2016-08-18T00:24:35.632Z,99.99
2016-08-18T00:25:34.966Z,99.99
2016-08-18T00:26:35.684Z,99.99
2016-08-18T00:27:35.082Z,99.99
2016-08-18T00:28:35.712Z,99.99
2016-08-18T00:29:35.743Z,99.99
2016-08-18T00:30:35.770Z,99.99
2016-08-18T00:31:35.775Z,99.99
2016-08-18T00:32:35.158Z,99.99
2016-08-18T00:33:35.806Z,99.99
2016-08-18T00:34:35.121Z,99.99
2016-08-18T00:35:35.846Z,99.99
2016-08-18T00:36:35.164Z,99.99
2016-08-18T00:37:35.885Z,99.99
2016-08-18T00:38:35.903Z,99.99
2016-08-18T00:39:35.931Z,99.99
2016-08-18T00:40:35.370Z,99.99
2016-08-18T00:41:35.975Z,99.99
2016-08-18T00:42:35.383Z,99.99
2016-08-18T00:43:36.003Z,99.99
2016-08-18T00:44:35.324Z,99.99
2016-08-18T00:45:35.335Z,99.99
2016-08-18T00:46:36.074Z,99.99
2016-08-18T00:47:36.085Z,99.99
2016-08-18T00:48:36.105Z,99.99
2016-08-18T00:49:36.135Z,99.99
2016-08-18T00:50:35.442Z,99.99
2016-08-18T00:51:36.281Z,99.99
2016-08-18T00:52:35.474Z,99.99
2016-08-18T00:53:36.273Z,99.99
2016-08-18T00:54:35.514Z,99.99
2016-08-18T00:55:35.631Z,99.99
2016-08-18T00:56:35.543Z,99.99
2016-08-18T00:57:35.578Z,99.99
2016-08-18T00:58:36.289Z,99.99
2016-08-18T00:59:36.315Z,99.99
2016-08-18T01:00:36.335Z,99.99
2016-08-18T01:01:36.358Z,99.99
2016-08-18T01:02:35.675Z,99.99
2016-08-18T01:03:36.384Z,99.99
2016-08-18T01:04:35.703Z,99.99
2016-08-18T01:05:35.718Z,99.99
2016-08-18T01:06:35.753Z,99.99
2016-08-18T01:07:35.842Z,99.99
2016-08-18T01:08:36.593Z,99.99
2016-08-18T01:09:35.802Z,99.99
2016-08-18T01:10:35.835Z,99.99
2016-08-18T01:11:35.844Z,99.99
2016-08-18T01:12:36.561Z,99.99
2016-08-18T01:13:36.578Z,99.99
2016-08-18T01:14:36.594Z,99.99
2016-08-18T01:15:35.919Z,99.99
2016-08-18T01:16:36.650Z,99.99
2016-08-18T01:17:36.670Z,99.99
2016-08-18T01:18:35.963Z,99.99
2016-08-18T01:19:36.699Z,99.99
2016-08-18T01:20:36.739Z,99.99
2016-08-18T01:21:36.035Z,99.99
2016-08-18T01:22:36.055Z,99.99
2016-08-18T01:23:36.773Z,99.99
2016-08-18T01:24:36.794Z,99.99
2016-08-18T01:25:36.814Z,99.99
2016-08-18T01:26:36.838Z,99.99
2016-08-18T01:27:36.842Z,99.99
2016-08-18T01:28:36.871Z,99.99
2016-08-18T01:29:36.195Z,99.99
2016-08-18T01:30:36.214Z,99.99
2016-08-18T01:31:36.928Z,99.99
2016-08-18T01:32:36.316Z,99.99
2016-08-18T01:33:36.984Z,99.99
2016-08-18T01:34:36.278Z,99.99
2016-08-18T01:35:36.293Z,99.99
2016-08-18T01:36:36.327Z,99.99
2016-08-18T01:37:37.062Z,99.99
2016-08-18T01:38:36.350Z,99.99
2016-08-18T01:39:37.074Z,99.99
2016-08-18T01:40:37.105Z,99.99
2016-08-18T01:41:36.411Z,99.99
2016-08-18T01:42:37.155Z,99.99
2016-08-18T01:43:37.155Z,99.99
2016-08-18T01:44:37.175Z,99.99
2016-08-18T01:45:37.202Z,99.99
2016-08-18T01:46:37.228Z,99.99
2016-08-18T01:47:37.235Z,99.99
2016-08-18T01:48:36.634Z,99.99
2016-08-18T01:49:36.576Z,99.99
2016-08-18T01:50:36.581Z,99.99
2016-08-18T01:51:36.616Z,99.99
2016-08-18T01:52:36.630Z,99.99
2016-08-18T01:53:37.358Z,99.99
2016-08-18T01:54:37.365Z,99.99
2016-08-18T01:55:37.390Z,99.99
2016-08-18T01:56:36.704Z,99.99
2016-08-18T01:57:37.435Z,99.99
2016-08-18T01:58:37.446Z,99.99
2016-08-18T01:59:37.475Z,99.99
2016-08-18T02:00:37.544Z,99.99
2016-08-18T02:01:37.505Z,99.99
2016-08-18T02:02:37.534Z,99.99
2016-08-18T02:03:37.554Z,99.99
2016-08-18T02:04:36.848Z,99.99
2016-08-18T02:05:36.873Z,99.99
2016-08-18T02:06:37.606Z,99.99
2016-08-18T02:07:36.984Z,99.99
2016-08-18T02:08:37.736Z,99.99
2016-08-18T02:09:37.756Z,99.99
2016-08-18T02:10:36.970Z,99.99
2016-08-18T02:11:37.700Z,99.99
2016-08-18T02:12:37.004Z,99.99
2016-08-18T02:13:37.736Z,99.99
2016-08-18T02:14:37.035Z,99.99
2016-08-18T02:15:37.068Z,99.99
2016-08-18T02:16:37.073Z,99.99
2016-08-18T02:17:37.802Z,99.99
2016-08-18T02:18:37.825Z,99.99
2016-08-18T02:19:37.140Z,99.99
2016-08-18T02:20:37.885Z,99.99
2016-08-18T02:21:37.187Z,99.99
2016-08-18T02:22:37.195Z,99.99
2016-08-18T02:23:37.924Z,99.99
2016-08-18T02:24:37.334Z,99.99
2016-08-18T02:25:37.962Z,99.99
2016-08-18T02:26:37.985Z,99.99
2016-08-18T02:27:37.293Z,99.99
2016-08-18T02:28:37.301Z,99.99
2016-08-18T02:29:37.406Z,99.99
2016-08-18T02:30:37.359Z,99.99
2016-08-18T02:31:37.382Z,99.99
2016-08-18T02:32:38.090Z,99.99
2016-08-18T02:33:38.118Z,99.99
2016-08-18T02:34:37.425Z,99.99
2016-08-18T02:35:38.153Z,99.99
2016-08-18T02:36:38.157Z,99.99
2016-08-18T02:37:37.575Z,99.99
2016-08-18T02:38:37.718Z,99.99
2016-08-18T02:39:38.273Z,99.99
2016-08-18T02:40:37.535Z,99.99
2016-08-18T02:41:37.553Z,99.99
2016-08-18T02:42:37.574Z,99.99
2016-08-18T02:43:38.283Z,99.99
2016-08-18T02:44:37.604Z,99.99
2016-08-18T02:45:38.332Z,99.99
2016-08-18T02:46:38.354Z,99.99
2016-08-18T02:47:38.381Z,99.99
2016-08-18T02:48:37.694Z,99.99
2016-08-18T02:49:37.704Z,99.99
2016-08-18T02:50:38.483Z,99.99
2016-08-18T02:51:37.743Z,99.99
2016-08-18T02:52:38.470Z,99.99
2016-08-18T02:53:37.775Z,99.99
2016-08-18T02:54:38.495Z,99.99
2016-08-18T02:55:37.816Z,99.99
2016-08-18T02:56:38.544Z,99.99
2016-08-18T02:57:38.558Z,99.99
2016-08-18T02:58:38.583Z,99.99
2016-08-18T02:59:37.884Z,99.99
2016-08-18T03:00:38.626Z,99.99
2016-08-18T03:01:38.655Z,99.99
2016-08-18T03:02:38.654Z,99.99
2016-08-18T03:03:38.662Z,99.99
2016-08-18T03:04:37.974Z,99.99
2016-08-18T03:05:37.987Z,99.99
2016-08-18T03:06:38.723Z,99.99
2016-08-18T03:07:38.746Z,99.99
2016-08-18T03:08:38.758Z,99.99
2016-08-18T03:09:38.769Z,99.99
2016-08-18T03:10:38.093Z,99.99
2016-08-18T03:11:38.814Z,99.99
2016-08-18T03:12:38.840Z,99.99
2016-08-18T03:13:38.140Z,99.99
2016-08-18T03:14:38.173Z,99.99
2016-08-18T03:15:38.893Z,99.99
2016-08-18T03:16:38.200Z,99.99
2016-08-18T03:17:38.223Z,99.99
2016-08-18T03:18:38.242Z,99.99
2016-08-18T03:19:38.973Z,99.99
2016-08-18T03:20:38.984Z,99.99
2016-08-18T03:21:38.991Z,99.99
2016-08-18T03:22:38.309Z,99.99
2016-08-18T03:23:39.045Z,99.99
2016-08-18T03:24:39.055Z,99.99
2016-08-18T03:25:38.363Z,99.99
2016-08-18T03:26:38.383Z,99.99
2016-08-18T03:27:39.112Z,99.99
2016-08-18T03:28:39.124Z,99.99
2016-08-18T03:29:38.443Z,99.99
2016-08-18T03:30:38.456Z,99.99
2016-08-18T03:31:39.205Z,99.99
2016-08-18T03:32:38.504Z,99.99
2016-08-18T03:33:39.225Z,99.99
2016-08-18T03:34:39.249Z,99.99
2016-08-18T03:35:39.248Z,99.99
2016-08-18T03:36:38.576Z,99.99
2016-08-18T03:37:38.586Z,99.99
2016-08-18T03:38:38.603Z,99.99
2016-08-18T03:39:38.635Z,99.99
2016-08-18T03:40:39.344Z,99.99
2016-08-18T03:41:39.373Z,99.99
2016-08-18T03:42:38.683Z,99.99
2016-08-18T03:43:39.412Z,99.99
2016-08-18T03:44:39.425Z,99.99
2016-08-18T03:45:38.742Z,99.99
2016-08-18T03:46:38.765Z,99.99
2016-08-18T03:47:39.475Z,99.99
2016-08-18T03:48:38.792Z,99.99
2016-08-18T03:49:39.511Z,99.99
2016-08-18T03:50:39.540Z,99.99
2016-08-18T03:51:39.582Z,99.99
2016-08-18T03:52:38.863Z,99.99
2016-08-18T03:53:39.705Z,99.99
2016-08-18T03:54:39.618Z,99.99
2016-08-18T03:55:39.632Z,99.99
2016-08-18T03:56:39.656Z,99.99
2016-08-18T03:57:38.963Z,99.99
2016-08-18T03:58:39.685Z,99.99
2016-08-18T03:59:39.693Z,99.99
2016-08-18T04:00:39.715Z,99.99
2016-08-18T04:01:39.747Z,99.99
2016-08-18T04:02:39.764Z,99.99
2016-08-18T04:03:39.795Z,99.99
2016-08-18T04:04:39.836Z,99.99
2016-08-18T04:05:39.810Z,99.99
2016-08-18T04:06:39.125Z,99.99
2016-08-18T04:07:39.846Z,99.99
2016-08-18T04:08:39.953Z,99.99
2016-08-18T04:09:39.175Z,99.99
2016-08-18T04:10:39.900Z,99.99
2016-08-18T04:11:39.923Z,99.99
2016-08-18T04:12:39.940Z,99.99
2016-08-18T04:13:39.963Z,99.99
2016-08-18T04:14:39.974Z,99.99
2016-08-18T04:15:39.297Z,99.99
2016-08-18T04:16:40.018Z,99.99
2016-08-18T04:17:40.149Z,99.99
2016-08-18T04:18:40.043Z,99.99
2016-08-18T04:19:40.094Z,99.99
2016-08-18T04:20:40.091Z,99.99
2016-08-18T04:21:40.123Z,99.99
2016-08-18T04:22:40.124Z,99.99
2016-08-18T04:23:40.194Z,99.99
2016-08-18T04:24:39.453Z,99.99
2016-08-18T04:25:39.477Z,99.99
2016-08-18T04:26:40.189Z,99.99
2016-08-18T04:27:40.233Z,99.99
2016-08-18T04:28:39.645Z,99.99
2016-08-18T04:29:40.248Z,99.99
2016-08-18T04:30:40.413Z,99.99
2016-08-18T04:31:40.286Z,99.99
2016-08-18T04:32:39.595Z,99.99
2016-08-18T04:33:40.332Z,99.99
2016-08-18T04:34:40.513Z,99.99
2016-08-18T04:35:39.648Z,99.99
2016-08-18T04:36:40.433Z,99.99
2016-08-18T04:37:40.403Z,99.99
2016-08-18T04:38:39.715Z,99.99
2016-08-18T04:39:40.445Z,99.99
2016-08-18T04:40:39.755Z,99.99
2016-08-18T04:41:40.475Z,99.99
2016-08-18T04:42:39.779Z,99.99
2016-08-18T04:43:39.962Z,99.99
2016-08-18T04:44:40.684Z,99.99
2016-08-18T04:45:40.760Z,99.99
2016-08-18T04:46:40.677Z,99.99
2016-08-18T04:47:40.791Z,99.99
2016-08-18T04:48:40.704Z,99.99
2016-08-18T04:49:40.831Z,99.99
2016-08-18T04:50:40.742Z,99.99
2016-08-18T04:52:12.451Z,99.99
2016-08-18T04:52:40.737Z,99.99
2016-08-18T04:53:40.791Z,99.99
2016-08-18T04:54:40.712Z,99.99
2016-08-18T04:55:40.732Z,99.99
2016-08-18T04:56:40.752Z,99.99
2016-08-18T04:57:40.063Z,99.99
2016-08-18T04:58:40.803Z,99.99
2016-08-18T04:59:40.811Z,99.99
2016-08-18T05:00:40.824Z,99.99
2016-08-18T05:01:40.852Z,99.99
2016-08-18T05:02:40.174Z,99.99
2016-08-18T05:03:40.894Z,99.99
2016-08-18T05:04:40.913Z,99.99
2016-08-18T05:05:40.932Z,99.99
2016-08-18T05:06:40.951Z,99.99
2016-08-18T05:07:40.970Z,99.99
2016-08-18T05:08:40.403Z,99.99
2016-08-18T05:09:40.303Z,99.99
2016-08-18T05:10:41.023Z,99.99
2016-08-18T05:11:41.048Z,99.99
2016-08-18T05:12:41.061Z,99.99
2016-08-18T05:13:41.096Z,99.99
2016-08-18T05:14:41.100Z,99.99
2016-08-18T05:15:40.423Z,99.99
2016-08-18T05:16:41.147Z,99.99
2016-08-18T05:17:41.202Z,99.99
2016-08-18T05:18:40.483Z,99.99
2016-08-18T05:19:41.212Z,99.99
2016-08-18T05:20:41.222Z,99.99
2016-08-18T05:21:41.243Z,99.99
2016-08-18T05:22:41.261Z,99.99
2016-08-18T05:23:40.582Z,99.99
2016-08-18T05:24:41.299Z,99.99
2016-08-18T05:25:40.611Z,99.99
2016-08-18T05:26:41.342Z,99.99
2016-08-18T05:27:41.358Z,99.99
2016-08-18T05:28:41.391Z,99.99
2016-08-18T05:29:41.411Z,99.99
2016-08-18T05:30:40.722Z,99.99
2016-08-18T05:31:41.431Z,99.99
2016-08-18T05:32:41.457Z,99.99
2016-08-18T05:33:41.484Z,99.99
2016-08-18T05:34:41.513Z,99.99
2016-08-18T05:35:40.897Z,99.48
2016-08-18T05:36:41.554Z,96.99
2016-08-18T05:37:41.561Z,94.98
2016-08-18T05:38:41.600Z,92
2016-08-18T05:39:40.902Z,89.02
2016-08-18T05:40:40.934Z,85.17
2016-08-18T05:41:41.663Z,82.27
2016-08-18T05:42:41.682Z,77.88
2016-08-18T05:43:41.707Z,73.91
2016-08-18T05:44:41.734Z,68.93
2016-08-18T05:45:41.742Z,63.02
2016-08-18T05:46:41.064Z,57.87
2016-08-18T05:47:41.091Z,56.15
2016-08-18T05:48:41.888Z,54.05
2016-08-18T05:49:41.845Z,51.95
2016-08-18T05:50:41.871Z,50.84
2016-08-18T05:51:41.883Z,49.32
2016-08-18T05:52:41.917Z,48.47
2016-08-18T05:53:41.239Z,47.23
2016-08-18T05:54:41.260Z,46.09
2016-08-18T05:55:41.290Z,44.87
2016-08-18T05:56:41.316Z,44.12
2016-08-18T05:57:42.111Z,42.66
2016-08-18T05:58:41.360Z,41.44
2016-08-18T05:59:41.393Z,41.05
2016-08-18T06:00:41.413Z,40.78
2016-08-18T06:01:41.482Z,40.01
2016-08-18T06:02:41.473Z,39.43
2016-08-18T06:03:42.209Z,39.26
2016-08-18T06:04:41.531Z,39.16
2016-08-18T06:05:41.553Z,39.08
2016-08-18T06:06:42.265Z,38.89
2016-08-18T06:07:41.594Z,38.32
2016-08-18T06:08:41.714Z,38.32
2016-08-18T06:09:41.657Z,37.75
2016-08-18T06:10:41.692Z,37.09
2016-08-18T06:11:42.422Z,36.43
2016-08-18T06:12:41.745Z,36.52
2016-08-18T06:13:42.474Z,35.85
2016-08-18T06:14:42.514Z,36.05
2016-08-18T06:15:41.820Z,35.28
2016-08-18T06:16:41.855Z,35.3
2016-08-18T06:17:41.884Z,34.81
2016-08-18T06:18:41.912Z,34.83
2016-08-18T06:19:41.945Z,35.01
2016-08-18T06:20:42.686Z,35.21
2016-08-18T06:21:42.704Z,35.69
2016-08-18T06:22:42.022Z,35.01
2016-08-18T06:23:42.764Z,35.13
2016-08-18T06:24:42.789Z,34.93
2016-08-18T06:25:42.119Z,34.36
2016-08-18T06:26:42.140Z,33.69
2016-08-18T06:27:42.880Z,33.12
2016-08-18T06:28:42.904Z,32.25
2016-08-18T06:29:42.232Z,32.07
2016-08-18T06:30:42.255Z,31.6
2016-08-18T06:31:42.993Z,30.93
2016-08-18T06:32:43.032Z,30.45
2016-08-18T06:33:42.351Z,30.36
2016-08-18T06:34:42.583Z,30.07
2016-08-18T06:35:43.179Z,30.28
2016-08-18T06:36:43.164Z,30.28
2016-08-18T06:37:43.171Z,30.38
2016-08-18T06:38:42.504Z,30.19
2016-08-18T06:39:42.533Z,29.41
2016-08-18T06:40:43.298Z,29.9
2016-08-18T06:41:43.313Z,30.3
2016-08-18T06:42:42.628Z,30.4
2016-08-18T06:43:43.362Z,29.61
2016-08-18T06:44:42.703Z,30.1
2016-08-18T06:45:43.447Z,29.92
2016-08-18T06:46:43.492Z,29.62
2016-08-18T06:47:42.783Z,29.33
2016-08-18T06:48:42.822Z,29.43
2016-08-18T06:49:43.562Z,29.03
2016-08-18T06:50:43.582Z,29.23
2016-08-18T06:51:42.918Z,28.95
2016-08-18T06:52:43.654Z,28.75
2016-08-18T06:53:43.694Z,27.78
2016-08-18T06:54:43.013Z,28.65
2016-08-18T06:55:43.765Z,28.74
2016-08-18T06:56:43.090Z,28.75
2016-08-18T06:57:43.823Z,28.24
2016-08-18T06:58:43.865Z,28.55
2016-08-18T06:59:43.230Z,28.45
2016-08-18T07:00:43.923Z,27.97
2016-08-18T07:01:43.241Z,27.78
2016-08-18T07:02:43.282Z,27.87
2016-08-18T07:03:43.314Z,27.79
2016-08-18T07:04:43.342Z,27.5
2016-08-18T07:05:43.373Z,27.68
2016-08-18T07:06:44.121Z,28.08
2016-08-18T07:07:44.149Z,27.69
2016-08-18T07:08:43.531Z,27.3
2016-08-18T07:09:44.221Z,28.75
2016-08-18T07:10:43.542Z,28.64
2016-08-18T07:11:44.383Z,28.44
2016-08-18T07:12:44.320Z,30.11
2016-08-18T07:13:43.636Z,30.45
2016-08-18T07:14:44.381Z,29.58
2016-08-18T07:15:44.402Z,29.41
2016-08-18T07:16:44.471Z,28.65
2016-08-18T07:17:43.854Z,27.58
2016-08-18T07:18:43.812Z,27.61
2016-08-18T07:19:43.866Z,27.7
2016-08-18T07:20:44.608Z,27.62
2016-08-18T07:21:43.904Z,28.48
2016-08-18T07:22:44.644Z,30.24
2016-08-18T07:23:44.689Z,31.85
2016-08-18T07:24:44.002Z,32.21
2016-08-18T07:25:44.042Z,31.66
2016-08-18T07:26:44.793Z,31.77
2016-08-18T07:27:44.816Z,33.31
2016-08-18T07:28:44.145Z,32.81
2016-08-18T07:29:44.891Z,33.91
2016-08-18T07:30:44.221Z,37.37
2016-08-18T07:31:44.232Z,39.9
2016-08-18T07:32:44.986Z,41.05
2016-08-18T07:33:45.017Z,42.48
2016-08-18T07:34:45.046Z,42.46
2016-08-18T07:35:44.374Z,41.99
2016-08-18T07:36:45.119Z,40.95
2016-08-18T07:37:44.442Z,39.41
2016-08-18T07:38:45.186Z,37.69
2016-08-18T07:39:44.510Z,36.84
2016-08-18T07:40:45.261Z,38.76
2016-08-18T07:41:44.581Z,40.39
2016-08-18T07:42:45.319Z,42.03
2016-08-18T07:43:45.364Z,41.89
2016-08-18T07:44:45.379Z,40.64
2016-08-18T07:45:45.412Z,39.53
2016-08-18T07:46:45.461Z,38.08
2016-08-18T07:47:44.774Z,38.78
2016-08-18T07:48:45.521Z,40.7
2016-08-18T07:49:44.839Z,40.95
2016-08-18T07:50:44.874Z,42.22
2016-08-18T07:51:45.598Z,42.97
2016-08-18T07:52:45.642Z,43.18
2016-08-18T07:53:45.081Z,44.51
2016-08-18T07:54:45.714Z,45.17
2016-08-18T07:55:45.044Z,45.34
2016-08-18T07:56:45.773Z,44.07
2016-08-18T07:57:45.802Z,44.68
2016-08-18T07:58:45.844Z,45.44
2016-08-18T07:59:45.161Z,47.17
2016-08-18T08:00:45.895Z,49.66
2016-08-18T08:01:45.934Z,54.68
2016-08-18T08:02:45.271Z,56.93
2016-08-18T08:03:45.295Z,60.21
2016-08-18T08:04:45.334Z,62.47
2016-08-18T08:05:46.064Z,63.85
2016-08-18T08:06:46.096Z,65.2
2016-08-18T08:07:45.421Z,68.33
2016-08-18T08:08:46.194Z,70.32
2016-08-18T08:09:45.590Z,73.62
2016-08-18T08:10:46.212Z,74.74
2016-08-18T08:11:45.534Z,75.23
2016-08-18T08:12:46.282Z,74.07
2016-08-18T08:13:46.312Z,75.32
2016-08-18T08:14:46.343Z,75.42
2016-08-18T08:15:45.752Z,74.8
2016-08-18T08:16:46.373Z,74.61
2016-08-18T08:17:46.413Z,74.03
2016-08-18T08:18:46.437Z,75.19
2016-08-18T08:19:46.483Z,75.67
2016-08-18T08:20:45.783Z,75.57
2016-08-18T08:21:45.802Z,75.57
2016-08-18T08:22:46.551Z,76.11
2016-08-18T08:23:46.559Z,75.44
2016-08-18T08:24:46.592Z,74.41
2016-08-18T08:25:45.912Z,74.99
2016-08-18T08:26:45.943Z,75.57
2016-08-18T08:27:45.981Z,76.06
2016-08-18T08:28:46.703Z,74.51
2016-08-18T08:29:46.730Z,72.2
2016-08-18T08:30:46.058Z,72.39
2016-08-18T08:31:46.785Z,74.22
2016-08-18T08:32:46.104Z,73.78
2016-08-18T08:33:46.122Z,74.36
2016-08-18T08:34:46.854Z,75.51
2016-08-18T08:35:46.201Z,77.63
2016-08-18T08:36:46.915Z,77.53
2016-08-18T08:37:46.237Z,77.06
2016-08-18T08:38:46.252Z,77.15
2016-08-18T08:39:46.990Z,77.78
2016-08-18T08:40:46.303Z,77.31
2016-08-18T08:41:47.043Z,78.46
2016-08-18T08:42:47.057Z,78.75
2016-08-18T08:43:46.482Z,77.59
2016-08-18T08:44:46.404Z,75.57
2016-08-18T08:45:46.448Z,75.09
2016-08-18T08:46:46.470Z,74.41
2016-08-18T08:47:46.477Z,75.42
2016-08-18T08:48:46.504Z,75.32
2016-08-18T08:49:46.527Z,74.84
2016-08-18T08:50:46.562Z,73.2
2016-08-18T08:51:46.583Z,72.49
2016-08-18T08:52:47.333Z,74.03
2016-08-18T08:53:47.331Z,74.03
2016-08-18T08:54:46.743Z,73.9
2016-08-18T08:55:46.674Z,73.65
2016-08-18T08:56:47.423Z,71.97
2016-08-18T08:57:47.441Z,72.65
2016-08-18T08:58:46.754Z,74.19
2016-08-18T08:59:47.491Z,74.76
2016-08-18T09:00:47.505Z,76.11
2016-08-18T09:01:46.834Z,76.01
2016-08-18T09:02:46.852Z,76.78
2016-08-18T09:03:46.873Z,77.84
2016-08-18T09:04:47.620Z,77.84
2016-08-18T09:05:46.932Z,77.65
2016-08-18T09:06:46.988Z,78.94
2016-08-18T09:07:46.972Z,77.31
2016-08-18T09:08:47.155Z,75.76
2016-08-18T09:09:47.734Z,76.53
2016-08-18T09:10:47.062Z,75.09
2016-08-18T09:11:47.077Z,73.36
2016-08-18T09:12:47.812Z,73.46
2016-08-18T09:13:47.839Z,73.74
2016-08-18T09:14:47.888Z,73.46
2016-08-18T09:15:47.184Z,73.46
2016-08-18T09:16:47.199Z,73.78
2016-08-18T09:17:47.234Z,72.43
2016-08-18T09:18:47.952Z,72.43
2016-08-18T09:19:47.358Z,72.37
2016-08-18T09:20:48.005Z,71.12
2016-08-18T09:21:48.084Z,68.13
2016-08-18T09:22:48.064Z,65.81
2016-08-18T09:23:47.385Z,67.71
2016-08-18T09:24:48.103Z,68.19
2016-08-18T09:25:48.128Z,68.58
2016-08-18T09:26:47.700Z,69.15
2016-08-18T09:27:47.473Z,70.7
2016-08-18T09:28:47.605Z,71.76
2016-08-18T09:29:48.228Z,70.89
2016-08-18T09:30:48.329Z,70.15
2016-08-18T09:31:48.300Z,70.83
2016-08-18T09:32:47.604Z,70.25
2016-08-18T09:33:47.610Z,69.09
2016-08-18T09:34:48.363Z,69.67
2016-08-18T09:35:48.792Z,70.73
2016-08-18T09:36:47.695Z,71.31
2016-08-18T09:37:48.417Z,70.54
2016-08-18T09:38:48.451Z,70.54
2016-08-18T09:39:47.765Z,70.83
2016-08-18T09:40:48.499Z,69.57
2016-08-18T09:41:48.522Z,65.81
2016-08-18T09:42:48.553Z,62.63
2016-08-18T09:43:48.594Z,65.05
2016-08-18T09:44:47.894Z,66.2
2016-08-18T09:45:48.619Z,65.43
2016-08-18T09:46:47.965Z,61.19
2016-08-18T09:47:47.975Z,61.19
2016-08-18T09:48:48.717Z,61.19
2016-08-18T09:49:48.724Z,59.45
2016-08-18T09:50:48.032Z,59.84
2016-08-18T09:51:48.075Z,57.72
2016-08-18T09:52:48.801Z,57.82
2016-08-18T09:53:48.820Z,59.94
2016-08-18T09:54:48.864Z,60.9
2016-08-18T09:55:48.879Z,60.68
2016-08-18T09:56:48.897Z,62.03
2016-08-18T09:57:48.215Z,61.35
2016-08-18T09:58:48.238Z,62.8
2016-08-18T09:59:48.975Z,63.28
2016-08-18T10:00:48.292Z,62.15
2016-08-18T10:01:49.015Z,62.06
2016-08-18T10:02:49.064Z,63.41
2016-08-18T10:03:49.075Z,63.21
2016-08-18T10:04:50.273Z,63.15
2016-08-18T10:05:48.406Z,62.76
2016-08-18T10:06:49.137Z,63.92
2016-08-18T10:07:49.714Z,64.59
2016-08-18T10:08:49.292Z,63.85
2016-08-18T10:09:48.611Z,63.18
2016-08-18T10:10:48.533Z,63.09
2016-08-18T10:11:49.276Z,64.47
2016-08-18T10:12:48.587Z,63.7
2016-08-18T10:13:48.635Z,62.73
2016-08-18T10:14:49.365Z,62.57
2016-08-18T10:15:49.372Z,62.95
2016-08-18T10:16:49.511Z,63.63
2016-08-18T10:17:48.706Z,63.34
2016-08-18T10:18:49.433Z,63.7
2016-08-18T10:19:48.767Z,64.28
2016-08-18T10:20:49.494Z,64.37
2016-08-18T10:21:49.520Z,64.37
2016-08-18T10:22:48.856Z,64.18
2016-08-18T10:23:48.867Z,64.08
2016-08-18T10:24:49.592Z,62.73
2016-08-18T10:25:48.917Z,62.73
2016-08-18T10:26:48.932Z,62.92
2016-08-18T10:27:49.965Z,62.82
2016-08-18T10:28:48.980Z,62.63
2016-08-18T10:29:49.014Z,63.31
2016-08-18T10:30:49.031Z,62.54
2016-08-18T10:31:50.013Z,61.8
2016-08-18T10:32:49.801Z,62.25
2016-08-18T10:33:49.136Z,61.77
2016-08-18T10:34:49.851Z,62.82
2016-08-18T10:35:49.224Z,62.82
2016-08-18T10:36:49.203Z,62.25
2016-08-18T10:37:49.220Z,61.47
2016-08-18T10:38:49.252Z,60.93
2016-08-18T10:39:49.284Z,60.25
2016-08-18T10:40:50.004Z,60.83
2016-08-18T10:41:49.320Z,61.12
2016-08-18T10:42:49.344Z,62.37
2016-08-18T10:43:49.371Z,59.31
2016-08-18T10:44:49.404Z,61.12
2016-08-18T10:45:49.423Z,61.57
2016-08-18T10:46:49.455Z,62.63
2016-08-18T10:47:49.486Z,61.09
2016-08-18T10:48:49.502Z,60.22
2016-08-18T10:49:50.257Z,61.57
2016-08-18T10:50:49.554Z,61.57
2016-08-18T10:51:49.581Z,60.8
2016-08-18T10:52:50.312Z,60.99
2016-08-18T10:53:49.637Z,60.89
2016-08-18T10:54:50.363Z,60.03
2016-08-18T10:55:49.716Z,59.58
2016-08-18T10:56:49.738Z,59.48
2016-08-18T10:57:50.444Z,58.93
2016-08-18T10:58:50.464Z,58.45
2016-08-18T10:59:50.484Z,58.45
2016-08-18T11:00:50.016Z,59.31
2016-08-18T11:01:50.201Z,57.12
2016-08-18T11:02:50.559Z,57.09
2016-08-18T11:03:49.993Z,57.51
2016-08-18T11:04:50.613Z,56.73
2016-08-18T11:05:50.646Z,56.45
2016-08-18T11:06:50.684Z,56.35
2016-08-18T11:07:50.694Z,56.54
2016-08-18T11:08:50.743Z,57.51
2016-08-18T11:09:50.759Z,58.86
2016-08-18T11:10:50.775Z,57.51
2016-08-18T11:11:50.811Z,56.76
2016-08-18T11:12:50.824Z,56.76
2016-08-18T11:13:50.863Z,56.7
2016-08-18T11:14:50.174Z,57.66
2016-08-18T11:15:50.905Z,57.01
2016-08-18T11:16:50.229Z,55.46
2016-08-18T11:17:50.247Z,55.76
2016-08-18T11:18:50.990Z,55.36
2016-08-18T11:19:50.303Z,56.34
2016-08-18T11:20:51.038Z,57.3
2016-08-18T11:21:51.064Z,57.95
2016-08-18T11:22:50.388Z,58.82
2016-08-18T11:23:51.114Z,58.02
2016-08-18T11:24:51.143Z,58.21
2016-08-18T11:25:51.172Z,58.89
2016-08-18T11:26:50.492Z,59.73
2016-08-18T11:27:50.524Z,57.99
2016-08-18T11:28:51.275Z,58.76
2016-08-18T11:29:51.295Z,58.67
2016-08-18T11:30:51.309Z,59.73
2016-08-18T11:31:50.635Z,59.53
2016-08-18T11:32:51.364Z,58.57
2016-08-18T11:33:51.393Z,58.37
2016-08-18T11:34:50.722Z,59.05
2016-08-18T11:35:51.454Z,57.89
2016-08-18T11:36:50.755Z,57.73
2016-08-18T11:37:51.505Z,58.21
2016-08-18T11:38:51.524Z,59.56
2016-08-18T11:39:50.843Z,57.37
2016-08-18T11:40:51.578Z,56.5
2016-08-18T11:41:50.924Z,56.21
2016-08-18T11:42:50.925Z,56.21
2016-08-18T11:43:51.664Z,55.92
2016-08-18T11:44:51.784Z,55.43
2016-08-18T11:45:51.705Z,56.98
2016-08-18T11:46:51.023Z,56.4
2016-08-18T11:47:51.057Z,55.82
2016-08-18T11:48:51.795Z,56.4
2016-08-18T11:49:51.815Z,56.4
2016-08-18T11:50:51.133Z,55.53
2016-08-18T11:51:51.885Z,55.31
2016-08-18T11:52:51.185Z,56.28
2016-08-18T11:53:51.932Z,55.67
2016-08-18T11:54:51.943Z,55.38
2016-08-18T11:55:51.975Z,55.19
2016-08-18T11:56:51.305Z,54.53
2016-08-18T12:11:59.054Z,50.45
2016-08-18T12:12:59.085Z,50.35
2016-08-18T12:13:59.105Z,50.26
2016-08-18T12:14:59.036Z,50.92
2016-08-18T12:15:59.751Z,51.68
2016-08-18T12:16:59.846Z,51.81
2016-08-18T12:17:59.123Z,51.5
2016-08-18T12:18:59.901Z,51.5
2016-08-18T12:19:59.867Z,51.59
2016-08-18T12:20:59.905Z,52.75
2016-08-18T12:21:59.222Z,53.17
2016-08-18T12:22:59.944Z,53.55
2016-08-18T12:23:59.984Z,55.36
2016-08-18T12:25:00.000Z,55.43
2016-08-18T12:26:00.144Z,55.46
2016-08-18T12:26:59.350Z,56.5
2016-08-18T12:27:59.391Z,57.66
2016-08-18T12:28:59.408Z,57.08
2016-08-18T12:30:00.128Z,57.24
2016-08-18T12:30:59.462Z,56.3
2016-08-18T12:31:59.587Z,56.28
2016-08-18T12:32:59.517Z,57.6
2016-08-18T12:33:59.544Z,57.21
2016-08-18T12:34:59.708Z,58.76
2016-08-18T12:36:00.301Z,58.25
2016-08-18T12:37:00.496Z,58.83
2016-08-18T12:37:59.637Z,59.41
2016-08-18T12:39:00.545Z,59.02
2016-08-18T12:40:00.516Z,58.25
2016-08-18T12:41:00.527Z,58.54
2016-08-18T12:42:00.661Z,58.64
2016-08-18T12:42:59.793Z,57.89
2016-08-18T12:43:59.816Z,57.99
2016-08-18T12:45:00.636Z,57.21
2016-08-18T12:45:59.874Z,57.89
2016-08-18T12:47:00.587Z,55.51
2016-08-18T12:48:00.619Z,55.09
2016-08-18T12:49:00.640Z,55.02
2016-08-18T12:50:00.677Z,55.31
2016-08-18T12:50:59.990Z,56.09
2016-08-18T12:52:00.741Z,56.28
2016-08-18T12:53:00.045Z,55.21
2016-08-18T12:54:00.775Z,55.6
2016-08-18T12:55:00.800Z,56.57
2016-08-18T12:56:00.130Z,57.37
2016-08-18T12:57:00.148Z,56.5
2016-08-18T12:58:00.887Z,56.5
2016-08-18T12:59:00.910Z,56.21
2016-08-18T13:00:00.229Z,56.14
2016-08-18T13:01:00.969Z,57.59
2016-08-18T13:02:01.190Z,56.65
2016-08-18T13:03:00.305Z,56.26
2016-08-18T13:04:00.328Z,55.1
2016-08-18T13:05:01.087Z,55.2
2016-08-18T13:06:00.386Z,51.93
2016-08-18T13:07:01.132Z,48.44
2016-08-18T13:08:00.442Z,48.71
2016-08-18T13:09:01.170Z,48.42